sensor_id;sensor_type;location;lat;lon;timestamp;pressure;altitude;pressure_sealevel;temperature;humidity
80511;BME280;69840;53.040;8.600;2023-07-31T00:03:44;100884.78;;;16.78;80.21
80511;BME280;69840;53.040;8.600;2023-07-31T00:07:56;100878.22;;;16.87;79.13
80511;BME280;69840;53.040;8.600;2023-07-31T00:12:09;100878.22;;;16.80;79.66
80511;BME280;69840;53.040;8.600;2023-07-31T00:16:21;100879.69;;;16.90;79.14
80511;BME280;69840;53.040;8.600;2023-07-31T00:20:34;100872.91;;;16.94;78.88
80511;BME280;69840;53.040;8.600;2023-07-31T00:24:46;100879.25;;;16.79;78.74
80511;BME280;69840;53.040;8.600;2023-07-31T00:28:59;100878.66;;;16.91;78.62
80511;BME280;69840;53.040;8.600;2023-07-31T00:33:11;100873.72;;;16.88;78.50
80511;BME280;69840;53.040;8.600;2023-07-31T00:37:24;100876.41;;;16.94;78.34
80511;BME280;69840;53.040;8.600;2023-07-31T00:41:36;100868.78;;;16.84;78.79
80511;BME280;69840;53.040;8.600;2023-07-31T00:45:49;100869.63;;;16.92;79.26
80511;BME280;69840;53.040;8.600;2023-07-31T00:50:03;100858.53;;;16.95;78.81
80511;BME280;69840;53.040;8.600;2023-07-31T00:54:16;100857.69;;;16.88;78.83
80511;BME280;69840;53.040;8.600;2023-07-31T00:58:30;100848.47;;;16.83;80.03
80511;BME280;69840;53.040;8.600;2023-07-31T01:02:43;100854.19;;;16.87;80.02
80511;BME280;69840;53.040;8.600;2023-07-31T01:07:16;100854.19;;;16.87;80.05
80511;BME280;69840;53.040;8.600;2023-07-31T01:11:41;100844.97;;;16.96;80.49
80511;BME280;69840;53.040;8.600;2023-07-31T01:15:55;100851.16;;;16.97;80.07
80511;BME280;69840;53.040;8.600;2023-07-31T01:20:13;100844.97;;;16.90;80.53
80511;BME280;69840;53.040;8.600;2023-07-31T01:29:19;100848.03;;;16.73;80.69
80511;BME280;69840;53.040;8.600;2023-07-31T01:33:34;100848.03;;;16.80;81.39
80511;BME280;69840;53.040;8.600;2023-07-31T01:37:48;100844.63;;;16.45;82.03
80511;BME280;69840;53.040;8.600;2023-07-31T01:42:01;100845.88;;;16.56;83.00
80511;BME280;69840;53.040;8.600;2023-07-31T01:46:13;100834.13;;;16.30;83.63
80511;BME280;69840;53.040;8.600;2023-07-31T01:50:26;100834.59;;;16.47;83.79
80511;BME280;69840;53.040;8.600;2023-07-31T01:54:38;100819.19;;;16.49;84.40
80511;BME280;69840;53.040;8.600;2023-07-31T01:58:51;100819.75;;;16.38;84.91
80511;BME280;69840;53.040;8.600;2023-07-31T02:03:03;100817.06;;;16.18;85.71
80511;BME280;69840;53.040;8.600;2023-07-31T02:07:16;100803.75;;;16.38;85.80
80511;BME280;69840;53.040;8.600;2023-07-31T02:11:28;100801.28;;;16.30;86.41
80511;BME280;69840;53.040;8.600;2023-07-31T02:15:41;100798.63;;;16.30;86.54
80511;BME280;69840;53.040;8.600;2023-07-31T02:19:54;100793.28;;;16.30;86.86
80511;BME280;69840;53.040;8.600;2023-07-31T02:24:06;100790.63;;;16.30;86.35
80511;BME280;69840;53.040;8.600;2023-07-31T02:28:19;100789.56;;;16.24;86.72
80511;BME280;69840;53.040;8.600;2023-07-31T02:32:32;100773.56;;;16.18;87.33
80511;BME280;69840;53.040;8.600;2023-07-31T02:36:44;100774.53;;;16.10;87.80
80511;BME280;69840;53.040;8.600;2023-07-31T02:40:57;100782.13;;;16.06;88.21
80511;BME280;69840;53.040;8.600;2023-07-31T02:45:09;100786.03;;;16.10;87.91
80511;BME280;69840;53.040;8.600;2023-07-31T02:49:22;100778.84;;;16.11;88.48
80511;BME280;69840;53.040;8.600;2023-07-31T02:53:34;100783.56;;;16.09;88.95
80511;BME280;69840;53.040;8.600;2023-07-31T02:57:47;100781.09;;;16.07;88.42
80511;BME280;69840;53.040;8.600;2023-07-31T03:01:59;100779.88;;;16.10;88.65
80511;BME280;69840;53.040;8.600;2023-07-31T03:06:12;100775.59;;;16.16;88.50
80511;BME280;69840;53.040;8.600;2023-07-31T03:10:24;100773.72;;;16.03;88.48
80511;BME280;69840;53.040;8.600;2023-07-31T03:14:37;100767.16;;;16.05;88.94
80511;BME280;69840;53.040;8.600;2023-07-31T03:18:50;100769.59;;;16.00;88.58
80511;BME280;69840;53.040;8.600;2023-07-31T03:23:03;100769.41;;;16.08;88.78
80511;BME280;69840;53.040;8.600;2023-07-31T03:27:15;100775.16;;;16.12;88.79
80511;BME280;69840;53.040;8.600;2023-07-31T03:31:28;100761.44;;;16.15;88.82
80511;BME280;69840;53.040;8.600;2023-07-31T03:35:41;100764.69;;;16.10;89.21
80511;BME280;69840;53.040;8.600;2023-07-31T03:39:53;100767.59;;;16.16;89.16
80511;BME280;69840;53.040;8.600;2023-07-31T03:44:06;100765.34;;;16.12;88.57
80511;BME280;69840;53.040;8.600;2023-07-31T03:48:18;100761.44;;;16.22;89.26
80511;BME280;69840;53.040;8.600;2023-07-31T03:52:31;100756.69;;;16.10;88.96
80511;BME280;69840;53.040;8.600;2023-07-31T03:56:43;100756.94;;;16.16;88.87
80511;BME280;69840;53.040;8.600;2023-07-31T04:00:56;100754.03;;;16.04;88.98
80511;BME280;69840;53.040;8.600;2023-07-31T04:05:08;100749.91;;;16.08;89.24
80511;BME280;69840;53.040;8.600;2023-07-31T04:09:21;100751.16;;;16.05;89.22
80511;BME280;69840;53.040;8.600;2023-07-31T04:13:33;100749.13;;;16.14;89.59
80511;BME280;69840;53.040;8.600;2023-07-31T04:17:46;100745.41;;;16.08;89.77
80511;BME280;69840;53.040;8.600;2023-07-31T04:21:58;100738.84;;;16.11;89.47
80511;BME280;69840;53.040;8.600;2023-07-31T04:26:11;100730.03;;;16.10;89.50
80511;BME280;69840;53.040;8.600;2023-07-31T04:30:24;100719.81;;;16.14;89.65
80511;BME280;69840;53.040;8.600;2023-07-31T04:34:36;100716.28;;;16.00;89.79
80511;BME280;69840;53.040;8.600;2023-07-31T04:38:49;100725.34;;;16.12;89.62
80511;BME280;69840;53.040;8.600;2023-07-31T04:43:01;100731.06;;;16.09;89.56
80511;BME280;69840;53.040;8.600;2023-07-31T04:47:14;100719.97;;;16.06;89.61
80511;BME280;69840;53.040;8.600;2023-07-31T04:51:26;100722.06;;;16.17;89.45
80511;BME280;69840;53.040;8.600;2023-07-31T04:55:39;100713.25;;;16.17;89.63
80511;BME280;69840;53.040;8.600;2023-07-31T04:59:51;100714.22;;;15.96;89.54
80511;BME280;69840;53.040;8.600;2023-07-31T05:04:04;100717.09;;;16.07;90.12
80511;BME280;69840;53.040;8.600;2023-07-31T05:08:16;100714.03;;;16.10;89.39
80511;BME280;69840;53.040;8.600;2023-07-31T05:12:29;100709.34;;;16.26;89.80
80511;BME280;69840;53.040;8.600;2023-07-31T05:16:41;100710.78;;;16.22;89.18
80511;BME280;69840;53.040;8.600;2023-07-31T05:20:54;100714.63;;;15.99;90.30
80511;BME280;69840;53.040;8.600;2023-07-31T05:25:07;100711.41;;;16.17;90.14
80511;BME280;69840;53.040;8.600;2023-07-31T05:29:19;100704.44;;;16.29;89.91
80511;BME280;69840;53.040;8.600;2023-07-31T05:33:32;100689.25;;;16.23;90.17
80511;BME280;69840;53.040;8.600;2023-07-31T05:37:45;100692.16;;;16.48;89.82
80511;BME280;69840;53.040;8.600;2023-07-31T05:41:57;100688.66;;;16.47;89.38
80511;BME280;69840;53.040;8.600;2023-07-31T05:46:09;100685.56;;;16.37;88.91
80511;BME280;69840;53.040;8.600;2023-07-31T05:50:22;100681.69;;;16.46;89.12
80511;BME280;69840;53.040;8.600;2023-07-31T05:54:35;100686.59;;;16.56;89.11
80511;BME280;69840;53.040;8.600;2023-07-31T05:58:47;100681.06;;;16.58;88.76
80511;BME280;69840;53.040;8.600;2023-07-31T06:03:00;100667.94;;;16.69;89.10
80511;BME280;69840;53.040;8.600;2023-07-31T06:07:12;100668.38;;;16.66;89.20
80511;BME280;69840;53.040;8.600;2023-07-31T06:11:25;100654.00;;;16.74;89.22
80511;BME280;69840;53.040;8.600;2023-07-31T06:15:37;100652.31;;;16.86;89.07
80511;BME280;69840;53.040;8.600;2023-07-31T06:19:50;100651.53;;;16.72;89.05
80511;BME280;69840;53.040;8.600;2023-07-31T06:24:05;100653.78;;;16.75;88.90
80511;BME280;69840;53.040;8.600;2023-07-31T06:28:18;100650.31;;;16.81;89.24
80511;BME280;69840;53.040;8.600;2023-07-31T06:32:31;100649.84;;;16.84;89.64
80511;BME280;69840;53.040;8.600;2023-07-31T06:36:44;100638.34;;;16.91;90.10
80511;BME280;69840;53.040;8.600;2023-07-31T06:40:56;100636.72;;;16.96;90.18
80511;BME280;69840;53.040;8.600;2023-07-31T06:45:09;100650.03;;;17.09;89.69
80511;BME280;69840;53.040;8.600;2023-07-31T06:49:22;100647.94;;;17.18;89.17
80511;BME280;69840;53.040;8.600;2023-07-31T06:53:34;100644.06;;;17.01;89.75
80511;BME280;69840;53.040;8.600;2023-07-31T06:57:52;100637.09;;;17.13;89.67
80511;BME280;69840;53.040;8.600;2023-07-31T07:02:05;100639.34;;;17.09;89.97
80511;BME280;69840;53.040;8.600;2023-07-31T07:06:18;100638.31;;;17.10;89.94
80511;BME280;69840;53.040;8.600;2023-07-31T07:10:30;100638.31;;;17.10;89.74
80511;BME280;69840;53.040;8.600;2023-07-31T07:14:43;100623.16;;;16.98;90.63
80511;BME280;69840;53.040;8.600;2023-07-31T07:18:55;100623.28;;;17.16;90.78
80511;BME280;69840;53.040;8.600;2023-07-31T07:23:14;100627.38;;;17.18;90.38
80511;BME280;69840;53.040;8.600;2023-07-31T07:27:26;100626.75;;;17.23;90.67
80511;BME280;69840;53.040;8.600;2023-07-31T07:31:38;100624.50;;;17.20;90.29
80511;BME280;69840;53.040;8.600;2023-07-31T07:35:51;100619.72;;;17.35;90.26
80511;BME280;69840;53.040;8.600;2023-07-31T07:40:04;100622.78;;;17.45;89.68
80511;BME280;69840;53.040;8.600;2023-07-31T07:44:16;100621.06;;;17.58;89.96
80511;BME280;69840;53.040;8.600;2023-07-31T07:48:29;100620.53;;;17.42;89.56
80511;BME280;69840;53.040;8.600;2023-07-31T07:52:42;100618.88;;;17.41;89.59
80511;BME280;69840;53.040;8.600;2023-07-31T07:56:54;100604.25;;;17.50;88.71
80511;BME280;69840;53.040;8.600;2023-07-31T08:01:07;100621.91;;;17.58;88.70
80511;BME280;69840;53.040;8.600;2023-07-31T08:05:19;100617.97;;;17.67;88.12
80511;BME280;69840;53.040;8.600;2023-07-31T08:09:32;100607.84;;;17.76;87.48
80511;BME280;69840;53.040;8.600;2023-07-31T08:13:44;100599.16;;;17.80;86.96
80511;BME280;69840;53.040;8.600;2023-07-31T08:17:57;100601.16;;;17.92;86.60
80511;BME280;69840;53.040;8.600;2023-07-31T08:22:10;100596.41;;;17.56;86.59
80511;BME280;69840;53.040;8.600;2023-07-31T08:26:22;100578.03;;;17.72;86.03
80511;BME280;69840;53.040;8.600;2023-07-31T08:30:35;100593.00;;;17.80;85.45
80511;BME280;69840;53.040;8.600;2023-07-31T08:34:47;100579.28;;;18.01;85.14
80511;BME280;69840;53.040;8.600;2023-07-31T08:39:00;100570.00;;;18.04;84.86
80511;BME280;69840;53.040;8.600;2023-07-31T08:43:12;100572.44;;;18.55;83.66
80511;BME280;69840;53.040;8.600;2023-07-31T08:47:25;100562.06;;;18.65;82.81
80511;BME280;69840;53.040;8.600;2023-07-31T08:51:40;100561.63;;;18.68;82.74
80511;BME280;69840;53.040;8.600;2023-07-31T08:55:54;100564.53;;;18.67;82.09
80511;BME280;69840;53.040;8.600;2023-07-31T09:00:10;100561.84;;;18.67;82.10
80511;BME280;69840;53.040;8.600;2023-07-31T09:04:23;100564.19;;;18.56;81.65
80511;BME280;69840;53.040;8.600;2023-07-31T09:08:40;100570.31;;;18.64;83.29
80511;BME280;69840;53.040;8.600;2023-07-31T09:12:54;100579.00;;;18.59;81.47
80511;BME280;69840;53.040;8.600;2023-07-31T09:17:08;100571.84;;;18.53;82.50
80511;BME280;69840;53.040;8.600;2023-07-31T09:21:20;100568.63;;;18.44;82.53
80511;BME280;69840;53.040;8.600;2023-07-31T09:25:33;100564.50;;;18.23;83.84
80511;BME280;69840;53.040;8.600;2023-07-31T09:29:58;100556.47;;;18.42;84.49
80511;BME280;69840;53.040;8.600;2023-07-31T09:34:11;100551.34;;;18.65;83.65
80511;BME280;69840;53.040;8.600;2023-07-31T09:38:24;100540.81;;;18.88;82.01
80511;BME280;69840;53.040;8.600;2023-07-31T09:42:37;100547.50;;;18.79;81.79
80511;BME280;69840;53.040;8.600;2023-07-31T09:46:49;100546.22;;;19.18;82.37
80511;BME280;69840;53.040;8.600;2023-07-31T09:51:04;100536.75;;;19.46;82.38
80511;BME280;69840;53.040;8.600;2023-07-31T09:55:18;100530.28;;;19.05;81.35
80511;BME280;69840;53.040;8.600;2023-07-31T09:59:31;100520.31;;;19.42;82.17
80511;BME280;69840;53.040;8.600;2023-07-31T10:03:45;100512.94;;;19.68;80.25
80511;BME280;69840;53.040;8.600;2023-07-31T10:07:58;100523.34;;;19.76;78.76
80511;BME280;69840;53.040;8.600;2023-07-31T10:12:12;100505.31;;;19.53;80.96
80511;BME280;69840;53.040;8.600;2023-07-31T10:16:26;100504.31;;;19.66;81.00
80511;BME280;69840;53.040;8.600;2023-07-31T10:20:40;100500.13;;;20.63;79.37
80511;BME280;69840;53.040;8.600;2023-07-31T10:24:54;100498.16;;;20.00;80.09
80511;BME280;69840;53.040;8.600;2023-07-31T10:29:07;100493.75;;;20.06;79.60
80511;BME280;69840;53.040;8.600;2023-07-31T10:33:20;100493.63;;;19.89;82.55
80511;BME280;69840;53.040;8.600;2023-07-31T10:37:41;100479.97;;;19.90;82.14
80511;BME280;69840;53.040;8.600;2023-07-31T10:41:54;100490.81;;;20.19;79.70
80511;BME280;69840;53.040;8.600;2023-07-31T10:46:13;100475.41;;;20.61;79.52
80511;BME280;69840;53.040;8.600;2023-07-31T10:50:27;100476.63;;;20.42;78.52
80511;BME280;69840;53.040;8.600;2023-07-31T10:54:39;100470.63;;;20.51;79.44
80511;BME280;69840;53.040;8.600;2023-07-31T10:59:01;100471.88;;;21.00;76.96
80511;BME280;69840;53.040;8.600;2023-07-31T11:03:18;100466.78;;;21.44;77.33
80511;BME280;69840;53.040;8.600;2023-07-31T11:07:47;100462.38;;;20.81;78.28
80511;BME280;69840;53.040;8.600;2023-07-31T11:12:00;100451.50;;;21.16;76.36
80511;BME280;69840;53.040;8.600;2023-07-31T11:16:13;100463.94;;;20.77;76.99
80511;BME280;69840;53.040;8.600;2023-07-31T11:20:26;100458.28;;;20.90;77.13
80511;BME280;69840;53.040;8.600;2023-07-31T11:24:39;100452.97;;;20.95;76.50
80511;BME280;69840;53.040;8.600;2023-07-31T11:28:52;100448.81;;;20.88;77.58
80511;BME280;69840;53.040;8.600;2023-07-31T11:33:05;100455.94;;;20.42;78.09
80511;BME280;69840;53.040;8.600;2023-07-31T11:37:18;100451.88;;;19.93;84.34
80511;BME280;69840;53.040;8.600;2023-07-31T11:41:31;100456.78;;;19.96;83.13
80511;BME280;69840;53.040;8.600;2023-07-31T11:45:48;100442.75;;;20.17;82.82
80511;BME280;69840;53.040;8.600;2023-07-31T11:50:04;100452.28;;;20.60;83.56
80511;BME280;69840;53.040;8.600;2023-07-31T11:54:17;100435.44;;;20.13;80.88
80511;BME280;69840;53.040;8.600;2023-07-31T11:58:31;100448.34;;;20.51;80.86
80511;BME280;69840;53.040;8.600;2023-07-31T12:02:45;100442.88;;;20.46;80.17
80511;BME280;69840;53.040;8.600;2023-07-31T12:07:00;100430.16;;;20.29;82.11
80511;BME280;69840;53.040;8.600;2023-07-31T12:11:13;100440.91;;;20.06;82.64
80511;BME280;69840;53.040;8.600;2023-07-31T12:15:36;100426.31;;;19.90;82.85
80511;BME280;69840;53.040;8.600;2023-07-31T12:19:49;100438.22;;;19.71;82.84
80511;BME280;69840;53.040;8.600;2023-07-31T12:24:02;100427.84;;;19.98;83.85
80511;BME280;69840;53.040;8.600;2023-07-31T12:28:14;100426.06;;;20.27;80.60
80511;BME280;69840;53.040;8.600;2023-07-31T12:32:30;100413.03;;;20.07;81.72
80511;BME280;69840;53.040;8.600;2023-07-31T12:36:42;100408.81;;;19.88;81.52
80511;BME280;69840;53.040;8.600;2023-07-31T12:40:55;100391.31;;;20.09;81.98
80511;BME280;69840;53.040;8.600;2023-07-31T12:45:08;100394.44;;;20.29;81.29
80511;BME280;69840;53.040;8.600;2023-07-31T12:49:20;100397.28;;;20.62;79.67
80511;BME280;69840;53.040;8.600;2023-07-31T12:53:33;100400.53;;;20.64;80.29
80511;BME280;69840;53.040;8.600;2023-07-31T12:57:46;100388.75;;;20.65;79.28
80511;BME280;69840;53.040;8.600;2023-07-31T13:01:59;100402.97;;;20.66;79.42
80511;BME280;69840;53.040;8.600;2023-07-31T13:06:11;100409.38;;;20.37;80.56
80511;BME280;69840;53.040;8.600;2023-07-31T13:10:24;100397.91;;;20.53;80.53
80511;BME280;69840;53.040;8.600;2023-07-31T13:14:37;100404.78;;;20.60;80.88
80511;BME280;69840;53.040;8.600;2023-07-31T13:18:49;100405.09;;;20.64;78.89
80511;BME280;69840;53.040;8.600;2023-07-31T13:23:02;100394.28;;;20.47;80.06
80511;BME280;69840;53.040;8.600;2023-07-31T13:27:15;100393.59;;;20.80;78.07
80511;BME280;69840;53.040;8.600;2023-07-31T13:31:27;100379.22;;;20.35;79.30
80511;BME280;69840;53.040;8.600;2023-07-31T13:35:40;100392.69;;;20.23;80.38
80511;BME280;69840;53.040;8.600;2023-07-31T13:39:52;100386.31;;;20.12;81.55
80511;BME280;69840;53.040;8.600;2023-07-31T13:44:05;100390.84;;;20.00;82.38
80511;BME280;69840;53.040;8.600;2023-07-31T13:48:17;100375.88;;;20.16;83.13
80511;BME280;69840;53.040;8.600;2023-07-31T13:52:30;100381.59;;;20.19;83.55
80511;BME280;69840;53.040;8.600;2023-07-31T13:56:43;100381.59;;;20.19;83.59
80511;BME280;69840;53.040;8.600;2023-07-31T14:00:55;100373.59;;;19.96;81.13
80511;BME280;69840;53.040;8.600;2023-07-31T14:05:08;100377.28;;;20.30;81.96
80511;BME280;69840;53.040;8.600;2023-07-31T14:09:20;100365.56;;;19.84;84.32
80511;BME280;69840;53.040;8.600;2023-07-31T14:13:33;100357.50;;;19.96;84.27
80511;BME280;69840;53.040;8.600;2023-07-31T14:17:46;100348.97;;;19.99;83.29
80511;BME280;69840;53.040;8.600;2023-07-31T14:21:59;100353.59;;;20.39;81.55
80511;BME280;69840;53.040;8.600;2023-07-31T14:26:20;100352.69;;;20.61;79.49
80511;BME280;69840;53.040;8.600;2023-07-31T14:30:33;100363.91;;;20.58;78.99
80511;BME280;69840;53.040;8.600;2023-07-31T14:34:46;100363.56;;;20.55;78.49
80511;BME280;69840;53.040;8.600;2023-07-31T14:38:58;100377.09;;;20.60;78.30
80511;BME280;69840;53.040;8.600;2023-07-31T14:43:11;100392.31;;;20.31;79.19
80511;BME280;69840;53.040;8.600;2023-07-31T14:47:23;100383.25;;;20.20;79.61
80511;BME280;69840;53.040;8.600;2023-07-31T14:51:36;100373.19;;;20.27;80.54
80511;BME280;69840;53.040;8.600;2023-07-31T14:55:48;100383.94;;;20.16;82.37
80511;BME280;69840;53.040;8.600;2023-07-31T15:00:01;100393.53;;;20.12;83.06
80511;BME280;69840;53.040;8.600;2023-07-31T15:04:14;100379.44;;;19.93;83.26
80511;BME280;69840;53.040;8.600;2023-07-31T15:08:26;100368.47;;;19.71;85.67
80511;BME280;69840;53.040;8.600;2023-07-31T15:12:40;100365.22;;;19.57;86.72
80511;BME280;69840;53.040;8.600;2023-07-31T15:16:53;100359.13;;;19.39;87.86
80511;BME280;69840;53.040;8.600;2023-07-31T15:21:05;100375.78;;;19.29;88.14
80511;BME280;69840;53.040;8.600;2023-07-31T15:25:18;100377.31;;;19.48;88.43
80511;BME280;69840;53.040;8.600;2023-07-31T15:29:30;100379.66;;;19.68;88.56
80511;BME280;69840;53.040;8.600;2023-07-31T15:33:43;100385.06;;;19.80;88.33
80511;BME280;69840;53.040;8.600;2023-07-31T15:37:56;100375.00;;;19.87;87.49
80511;BME280;69840;53.040;8.600;2023-07-31T15:42:08;100369.69;;;20.27;86.34
80511;BME280;69840;53.040;8.600;2023-07-31T15:46:21;100368.41;;;20.29;84.95
80511;BME280;69840;53.040;8.600;2023-07-31T15:50:34;100378.84;;;20.14;84.85
80511;BME280;69840;53.040;8.600;2023-07-31T15:54:47;100369.72;;;20.15;85.46
80511;BME280;69840;53.040;8.600;2023-07-31T15:58:59;100358.28;;;20.20;83.87
80511;BME280;69840;53.040;8.600;2023-07-31T16:03:12;100357.03;;;19.99;85.24
80511;BME280;69840;53.040;8.600;2023-07-31T16:07:25;100346.94;;;20.18;83.99
80511;BME280;69840;53.040;8.600;2023-07-31T16:11:37;100349.94;;;19.70;83.86
80511;BME280;69840;53.040;8.600;2023-07-31T16:15:50;100336.31;;;19.71;84.54
80511;BME280;69840;53.040;8.600;2023-07-31T16:20:03;100335.59;;;19.76;84.27
80511;BME280;69840;53.040;8.600;2023-07-31T16:24:16;100331.19;;;19.81;83.38
80511;BME280;69840;53.040;8.600;2023-07-31T16:28:28;100318.47;;;19.77;84.47
80511;BME280;69840;53.040;8.600;2023-07-31T16:32:41;100308.31;;;19.79;83.55
80511;BME280;69840;53.040;8.600;2023-07-31T16:36:53;100307.84;;;19.82;82.59
80511;BME280;69840;53.040;8.600;2023-07-31T16:41:06;100307.28;;;19.80;83.50
80511;BME280;69840;53.040;8.600;2023-07-31T16:45:19;100302.28;;;19.60;83.50
80511;BME280;69840;53.040;8.600;2023-07-31T16:49:31;100310.22;;;19.67;84.05
80511;BME280;69840;53.040;8.600;2023-07-31T16:53:44;100302.38;;;19.77;83.36
80511;BME280;69840;53.040;8.600;2023-07-31T16:57:56;100301.34;;;19.54;83.31
80511;BME280;69840;53.040;8.600;2023-07-31T17:02:09;100295.84;;;19.73;83.72
80511;BME280;69840;53.040;8.600;2023-07-31T17:06:22;100312.50;;;19.75;84.95
80511;BME280;69840;53.040;8.600;2023-07-31T17:10:35;100316.94;;;19.69;84.02
80511;BME280;69840;53.040;8.600;2023-07-31T17:14:47;100289.22;;;19.64;82.95
80511;BME280;69840;53.040;8.600;2023-07-31T17:19:01;100290.28;;;19.63;84.07
80511;BME280;69840;53.040;8.600;2023-07-31T17:23:14;100301.00;;;19.63;84.53
80511;BME280;69840;53.040;8.600;2023-07-31T17:27:26;100295.25;;;19.47;85.03
80511;BME280;69840;53.040;8.600;2023-07-31T17:31:39;100300.28;;;19.32;85.82
80511;BME280;69840;53.040;8.600;2023-07-31T17:35:52;100291.28;;;19.26;87.55
80511;BME280;69840;53.040;8.600;2023-07-31T17:40:05;100281.16;;;19.28;87.70
80511;BME280;69840;53.040;8.600;2023-07-31T17:44:18;100284.53;;;19.12;87.66
80511;BME280;69840;53.040;8.600;2023-07-31T17:48:31;100278.81;;;19.09;87.88
80511;BME280;69840;53.040;8.600;2023-07-31T17:52:44;100269.59;;;19.05;88.35
80511;BME280;69840;53.040;8.600;2023-07-31T17:56:56;100266.00;;;18.87;88.76
80511;BME280;69840;53.040;8.600;2023-07-31T18:01:09;100261.78;;;18.91;88.88
80511;BME280;69840;53.040;8.600;2023-07-31T18:05:21;100256.88;;;18.65;89.76
80511;BME280;69840;53.040;8.600;2023-07-31T18:09:34;100245.34;;;18.76;89.24
80511;BME280;69840;53.040;8.600;2023-07-31T18:13:46;100229.75;;;18.73;89.82
80511;BME280;69840;53.040;8.600;2023-07-31T18:17:59;100234.06;;;18.74;89.20
80511;BME280;69840;53.040;8.600;2023-07-31T18:22:11;100229.88;;;18.78;89.35
80511;BME280;69840;53.040;8.600;2023-07-31T18:26:24;100225.47;;;18.72;89.29
80511;BME280;69840;53.040;8.600;2023-07-31T18:30:36;100228.47;;;18.64;89.24
80511;BME280;69840;53.040;8.600;2023-07-31T18:34:49;100243.78;;;18.57;89.87
80511;BME280;69840;53.040;8.600;2023-07-31T18:39:01;100226.41;;;18.48;90.09
80511;BME280;69840;53.040;8.600;2023-07-31T18:43:14;100211.25;;;18.42;91.69
80511;BME280;69840;53.040;8.600;2023-07-31T18:47:26;100228.16;;;18.12;90.53
80511;BME280;69840;53.040;8.600;2023-07-31T18:51:39;100226.91;;;18.27;90.93
80511;BME280;69840;53.040;8.600;2023-07-31T18:55:51;100209.97;;;18.33;91.05
80511;BME280;69840;53.040;8.600;2023-07-31T19:00:04;100199.41;;;18.38;90.72
80511;BME280;69840;53.040;8.600;2023-07-31T19:04:17;100191.81;;;18.35;91.05
80511;BME280;69840;53.040;8.600;2023-07-31T19:08:30;100197.63;;;18.32;91.00
80511;BME280;69840;53.040;8.600;2023-07-31T19:12:43;100182.41;;;18.32;91.25
80511;BME280;69840;53.040;8.600;2023-07-31T19:16:56;100176.44;;;18.30;91.31
80511;BME280;69840;53.040;8.600;2023-07-31T19:21:08;100176.69;;;18.29;91.36
80511;BME280;69840;53.040;8.600;2023-07-31T19:25:21;100165.53;;;18.32;92.13
80511;BME280;69840;53.040;8.600;2023-07-31T19:29:33;100160.84;;;18.27;92.99
80511;BME280;69840;53.040;8.600;2023-07-31T19:33:46;100156.47;;;18.33;93.50
80511;BME280;69840;53.040;8.600;2023-07-31T19:37:58;100156.22;;;18.34;92.63
80511;BME280;69840;53.040;8.600;2023-07-31T19:42:11;100149.47;;;18.32;93.39
80511;BME280;69840;53.040;8.600;2023-07-31T19:46:24;100142.63;;;18.36;92.77
80511;BME280;69840;53.040;8.600;2023-07-31T19:50:37;100141.09;;;18.28;92.02
80511;BME280;69840;53.040;8.600;2023-07-31T19:54:49;100135.63;;;18.23;92.75
80511;BME280;69840;53.040;8.600;2023-07-31T19:59:02;100123.97;;;18.17;92.84
80511;BME280;69840;53.040;8.600;2023-07-31T20:03:14;100131.53;;;18.20;92.70
80511;BME280;69840;53.040;8.600;2023-07-31T20:07:27;100121.88;;;18.19;92.23
80511;BME280;69840;53.040;8.600;2023-07-31T20:11:39;100100.25;;;18.09;92.90
80511;BME280;69840;53.040;8.600;2023-07-31T20:15:52;100092.09;;;18.16;92.47
80511;BME280;69840;53.040;8.600;2023-07-31T20:20:05;100069.28;;;18.13;92.69
80511;BME280;69840;53.040;8.600;2023-07-31T20:24:18;100070.34;;;18.12;93.08
80511;BME280;69840;53.040;8.600;2023-07-31T20:28:30;100080.34;;;18.05;92.88
80511;BME280;69840;53.040;8.600;2023-07-31T20:32:43;100059.31;;;18.20;92.45
80511;BME280;69840;53.040;8.600;2023-07-31T20:36:55;100061.63;;;18.17;92.71
80511;BME280;69840;53.040;8.600;2023-07-31T20:41:10;100080.56;;;17.92;92.48
80511;BME280;69840;53.040;8.600;2023-07-31T20:45:25;100078.25;;;18.07;92.39
80511;BME280;69840;53.040;8.600;2023-07-31T20:49:37;100070.69;;;18.04;92.92
80511;BME280;69840;53.040;8.600;2023-07-31T20:53:50;100051.16;;;17.92;92.68
80511;BME280;69840;53.040;8.600;2023-07-31T20:58:02;100031.03;;;18.01;92.75
80511;BME280;69840;53.040;8.600;2023-07-31T21:02:15;100022.69;;;18.09;92.28
80511;BME280;69840;53.040;8.600;2023-07-31T21:06:27;100013.81;;;17.97;92.31
80511;BME280;69840;53.040;8.600;2023-07-31T21:10:40;100018.81;;;17.94;92.27
80511;BME280;69840;53.040;8.600;2023-07-31T21:14:52;100021.22;;;17.83;91.96
80511;BME280;69840;53.040;8.600;2023-07-31T21:19:05;100024.59;;;17.79;90.64
80511;BME280;69840;53.040;8.600;2023-07-31T21:23:17;100017.28;;;17.86;90.89
80511;BME280;69840;53.040;8.600;2023-07-31T21:27:30;100009.28;;;17.86;91.25
80511;BME280;69840;53.040;8.600;2023-07-31T21:31:42;100011.94;;;17.86;91.06
80511;BME280;69840;53.040;8.600;2023-07-31T21:35:55;100005.31;;;17.77;90.37
80511;BME280;69840;53.040;8.600;2023-07-31T21:40:08;99984.75;;;17.77;90.29
80511;BME280;69840;53.040;8.600;2023-07-31T21:44:20;99984.25;;;17.69;90.55
80511;BME280;69840;53.040;8.600;2023-07-31T21:48:33;99974.59;;;17.68;90.90
80511;BME280;69840;53.040;8.600;2023-07-31T21:52:45;99963.91;;;17.68;90.99
80511;BME280;69840;53.040;8.600;2023-07-31T21:56:58;99966.59;;;17.68;91.50
80511;BME280;69840;53.040;8.600;2023-07-31T22:01:10;99968.16;;;17.57;90.38
80511;BME280;69840;53.040;8.600;2023-07-31T22:05:23;99958.03;;;17.47;90.90
80511;BME280;69840;53.040;8.600;2023-07-31T22:09:35;99962.69;;;17.52;91.18